Terminal Aerodrome Forecast
Issued by NWS

Current Version | Previous Version | Text Only | Print | Product List | Glossary On
Versions: 1 2 3 4 5 6 7 8 9 10 11 12 13 14 15 16 17 18 19 20 21 22 23 24 25 26 27
000 FTUS41 KOKX 012300 TAFGON TAF KGON 012327Z 0200/0224 21004KT 1/2SM SN FZFG OVC010 FM020300 VRB03KT 2SM -SN BR FEW004 BKN010 FM020700 VRB03KT 4SM BR OVC010 FM021000 VRB04KT P6SM SCT015 BKN025 FM021300 30008KT P6SM SCT025 BKN050 FM021600 31014G24KT P6SM FEW050 SCT250 FM022300 31011KT P6SM SCT250=

USA.gov is the U.S. government's official web portal to all federal, state and local government web resources and services.